createdAt,value
2018-03-30T00:00:49.045Z,7.17
2018-03-30T00:03:19.453Z,8.60
2018-03-30T00:05:49.578Z,6.77
2018-03-30T00:08:19.040Z,8.27
2018-03-30T00:10:53.218Z,7.57
2018-03-30T00:13:22.762Z,7.20
2018-03-30T00:15:52.106Z,7.77
2018-03-30T00:18:21.894Z,8.00
2018-03-30T00:20:52.218Z,9.33
2018-03-30T00:23:22.343Z,8.63
2018-03-30T00:25:52.933Z,5.87
2018-03-30T00:28:23.036Z,7.47
2018-03-30T00:30:57.082Z,8.00
2018-03-30T00:33:27.391Z,7.60
2018-03-30T00:36:01.150Z,5.77
2018-03-30T00:38:31.310Z,6.67
2018-03-30T00:41:04.409Z,9.63
2018-03-30T00:43:34.538Z,9.27
2018-03-30T00:46:06.913Z,9.83
2018-03-30T00:48:36.812Z,6.30
2018-03-30T00:51:18.681Z,8.33
2018-03-30T00:53:49.775Z,9.63
2018-03-30T00:56:20.552Z,9.07
2018-03-30T00:58:50.959Z,8.27
2018-03-30T01:01:20.935Z,8.67
2018-03-30T01:03:50.850Z,6.30
2018-03-30T01:06:21.720Z,7.80
2018-03-30T01:08:51.636Z,7.30
2018-03-30T01:11:21.666Z,7.77
2018-03-30T01:13:52.308Z,6.90
2018-03-30T01:16:22.110Z,6.57
2018-03-30T01:18:52.144Z,6.80
2018-03-30T01:21:23.888Z,7.83
2018-03-30T01:23:55.231Z,9.37
2018-03-30T01:26:26.226Z,9.10
2018-03-30T01:28:56.326Z,8.17
2018-03-30T01:31:28.158Z,8.47
2018-03-30T01:33:58.073Z,8.83
2018-03-30T01:36:34.259Z,7.27
2018-03-30T01:39:05.099Z,9.70
2018-03-30T01:41:36.073Z,9.70
2018-03-30T01:44:06.856Z,8.83
2018-03-30T01:46:37.125Z,7.43
2018-03-30T01:49:07.520Z,6.97
2018-03-30T01:51:41.243Z,8.13
2018-03-30T01:54:11.450Z,7.70
2018-03-30T01:56:42.900Z,10.03
2018-03-30T01:59:12.811Z,8.67
2018-03-30T02:01:45.007Z,8.60
2018-03-30T02:04:15.900Z,11.33
2018-03-30T02:06:48.953Z,14.87
2018-03-30T02:09:19.029Z,11.10
2018-03-30T02:11:52.554Z,8.07
2018-03-30T02:14:24.116Z,9.40
2018-03-30T02:16:54.964Z,10.20
2018-03-30T02:19:25.058Z,6.93
2018-03-30T02:21:57.021Z,16.40
2018-03-30T02:24:28.632Z,7.27
2018-03-30T02:27:00.554Z,8.03
2018-03-30T02:29:30.757Z,9.87
2018-03-30T02:32:03.545Z,6.30
2018-03-30T02:34:34.149Z,11.73
2018-03-30T02:37:05.666Z,20.00
2018-03-30T02:39:36.387Z,10.57
2018-03-30T02:42:09.981Z,9.97
2018-03-30T02:44:39.941Z,8.40
2018-03-30T02:47:22.558Z,6.43
2018-03-30T02:49:53.370Z,6.77
2018-03-30T02:52:23.987Z,6.73
2018-03-30T02:54:53.848Z,6.17
2018-03-30T02:57:24.272Z,6.53
2018-03-30T02:59:54.575Z,7.53
2018-03-30T03:02:24.564Z,4.93
2018-03-30T03:04:54.795Z,5.43
2018-03-30T03:07:25.295Z,7.27
2018-03-30T03:09:55.615Z,7.60
2018-03-30T03:12:25.746Z,6.00
2018-03-30T03:14:56.424Z,5.87
2018-03-30T03:17:27.875Z,6.17
2018-03-30T03:19:59.762Z,9.50
2018-03-30T03:22:30.935Z,6.67
2018-03-30T03:25:00.895Z,7.30
2018-03-30T03:27:32.091Z,6.77
2018-03-30T03:30:02.638Z,7.30
2018-03-30T03:32:35.210Z,5.67
2018-03-30T03:35:05.928Z,8.00
2018-03-30T03:37:38.996Z,7.17
2018-03-30T03:40:10.038Z,8.00
2018-03-30T03:42:40.559Z,9.47
2018-03-30T03:45:11.722Z,9.17
2018-03-30T03:47:43.342Z,7.63
2018-03-30T03:50:14.001Z,7.67
2018-03-30T03:52:46.073Z,7.83
2018-03-30T03:55:17.023Z,8.40
2018-03-30T03:57:49.461Z,8.10
2018-03-30T04:00:20.500Z,6.07
2018-03-30T04:02:52.136Z,6.83
2018-03-30T04:05:22.149Z,7.40
2018-03-30T04:07:55.714Z,10.40
2018-03-30T04:10:25.787Z,10.27
2018-03-30T04:12:59.205Z,8.17
2018-03-30T04:15:30.025Z,6.57
2018-03-30T04:18:00.787Z,7.23
2018-03-30T04:20:30.982Z,10.73
2018-03-30T04:23:05.041Z,6.60
2018-03-30T04:25:35.331Z,7.97
2018-03-30T04:28:09.449Z,9.90
2018-03-30T04:30:39.707Z,9.23
2018-03-30T04:33:12.884Z,8.73
2018-03-30T04:35:43.512Z,8.60
2018-03-30T04:38:14.290Z,8.00
2018-03-30T04:40:45.245Z,10.10
2018-03-30T04:43:16.192Z,9.40
2018-03-30T04:45:47.262Z,12.13
2018-03-30T04:48:17.408Z,7.93
2018-03-30T04:50:47.236Z,8.13
2018-03-30T04:53:20.648Z,8.00
2018-03-30T04:55:50.747Z,10.93
2018-03-30T04:58:21.851Z,12.00
2018-03-30T05:00:51.851Z,7.03
2018-03-30T05:03:25.710Z,8.90
2018-03-30T05:05:55.917Z,8.37
2018-03-30T05:08:27.225Z,10.10
2018-03-30T05:10:57.735Z,8.33
2018-03-30T05:13:29.126Z,10.23
2018-03-30T05:15:59.124Z,10.17
2018-03-30T05:18:31.141Z,9.90
2018-03-30T05:21:01.717Z,11.60
2018-03-30T05:23:33.951Z,10.87
2018-03-30T05:26:03.975Z,10.67
2018-03-30T05:28:35.249Z,11.70
2018-03-30T05:31:06.148Z,11.97
2018-03-30T05:33:39.461Z,11.43
2018-03-30T05:36:10.119Z,13.10
2018-03-30T05:38:41.606Z,11.27
2018-03-30T05:41:11.742Z,14.27
2018-03-30T05:43:54.158Z,10.23
2018-03-30T05:46:24.934Z,10.00
2018-03-30T05:48:55.442Z,10.13
2018-03-30T05:51:26.399Z,10.00
2018-03-30T05:53:56.801Z,10.13
2018-03-30T05:56:27.558Z,10.07
2018-03-30T05:58:57.632Z,9.87
2018-03-30T06:01:28.846Z,9.93
2018-03-30T06:03:59.094Z,8.67
2018-03-30T06:06:29.295Z,10.77
2018-03-30T06:09:11.528Z,9.23
2018-03-30T06:11:41.613Z,9.83
2018-03-30T06:14:12.021Z,8.47
2018-03-30T06:16:42.515Z,9.50
2018-03-30T06:19:14.115Z,9.23
2018-03-30T06:21:44.190Z,12.17
2018-03-30T06:24:15.039Z,11.03
2018-03-30T06:26:45.061Z,7.03
2018-03-30T06:29:16.071Z,6.63
2018-03-30T06:31:46.015Z,7.53
2018-03-30T06:34:19.490Z,7.43
2018-03-30T06:36:50.347Z,7.77
2018-03-30T06:39:20.594Z,8.43
2018-03-30T06:41:50.270Z,10.20
2018-03-30T06:44:23.323Z,11.73
2018-03-30T06:46:53.576Z,13.57
2018-03-30T06:49:24.491Z,11.00
2018-03-30T06:51:54.171Z,8.90
2018-03-30T06:54:26.576Z,8.33
2018-03-30T06:56:56.546Z,9.27
2018-03-30T06:59:28.938Z,13.30
2018-03-30T07:01:58.772Z,8.40
2018-03-30T07:04:31.498Z,10.50
2018-03-30T07:07:01.252Z,9.43
2018-03-30T07:09:34.204Z,9.67
2018-03-30T07:12:04.196Z,8.80
2018-03-30T07:14:37.206Z,10.60
2018-03-30T07:17:06.874Z,12.57
2018-03-30T07:19:40.866Z,10.80
2018-03-30T07:22:10.434Z,10.40
2018-03-30T07:24:41.494Z,8.83
2018-03-30T07:27:11.158Z,10.43
2018-03-30T07:29:47.260Z,8.20
2018-03-30T07:32:17.222Z,11.83
2018-03-30T07:34:48.630Z,7.50
2018-03-30T07:37:18.591Z,10.13
2018-03-30T07:39:51.333Z,8.80
2018-03-30T07:42:21.042Z,7.37
2018-03-30T07:44:54.720Z,8.80
2018-03-30T07:47:24.410Z,9.80
2018-03-30T07:50:06.391Z,9.20
2018-03-30T07:52:36.862Z,8.83
2018-03-30T07:55:06.839Z,8.70
2018-03-30T07:57:38.288Z,9.17
2018-03-30T08:00:08.950Z,9.77
2018-03-30T08:02:38.672Z,6.87
2018-03-30T08:05:08.353Z,8.47
2018-03-30T08:07:38.347Z,8.30
2018-03-30T08:10:20.662Z,8.93
2018-03-30T08:12:50.400Z,13.43
2018-03-30T08:15:19.943Z,6.80
2018-03-30T08:17:49.405Z,9.67
2018-03-30T08:20:19.399Z,5.67
2018-03-30T08:22:48.805Z,6.37
2018-03-30T08:38:24.338Z,28.43
2018-03-30T08:40:53.926Z,17.30
2018-03-30T08:43:25.394Z,5.63
2018-03-30T08:45:55.206Z,8.33
2018-03-30T08:48:27.952Z,9.53
2018-03-30T08:50:58.613Z,6.87
2018-03-30T08:53:30.706Z,7.07
2018-03-30T08:56:00.162Z,4.33
2018-03-30T08:58:34.929Z,4.40
2018-03-30T09:01:04.546Z,6.57
2018-03-30T09:03:36.399Z,7.17
2018-03-30T09:06:07.042Z,4.07
2018-03-30T09:08:39.467Z,6.30
2018-03-30T09:11:10.104Z,6.70
2018-03-30T09:13:42.045Z,5.50
2018-03-30T09:16:11.802Z,4.80
2018-03-30T09:18:43.755Z,5.67
2018-03-30T09:21:13.211Z,4.10
2018-03-30T09:23:46.333Z,4.63
2018-03-30T09:26:16.787Z,5.20
2018-03-30T09:28:48.467Z,4.97
2018-03-30T09:31:18.720Z,6.63
2018-03-30T09:33:53.629Z,7.00
2018-03-30T09:36:23.470Z,5.40
2018-03-30T09:38:57.940Z,6.67
2018-03-30T09:41:28.508Z,6.93
2018-03-30T09:44:01.278Z,4.47
2018-03-30T09:46:31.383Z,4.13
2018-03-30T09:49:04.808Z,3.53
2018-03-30T09:51:34.254Z,4.47
2018-03-30T09:54:09.499Z,4.90
2018-03-30T09:56:39.008Z,5.20
2018-03-30T09:59:12.159Z,4.10
2018-03-30T10:01:42.823Z,4.10
2018-03-30T10:04:17.366Z,4.60
2018-03-30T10:06:46.819Z,6.27
2018-03-30T10:09:17.273Z,5.80
2018-03-30T10:11:46.793Z,3.83
2018-03-30T10:14:19.729Z,5.97
2018-03-30T10:16:50.188Z,4.23
2018-03-30T10:19:22.986Z,6.23
2018-03-30T10:21:53.615Z,5.57
2018-03-30T10:24:24.441Z,5.50
2018-03-30T10:26:53.763Z,4.27
2018-03-30T10:29:26.491Z,6.73
2018-03-30T10:31:57.041Z,5.23
2018-03-30T10:34:29.980Z,4.13
2018-03-30T10:36:59.406Z,4.40
2018-03-30T10:39:31.877Z,7.37
2018-03-30T10:42:01.465Z,6.53
2018-03-30T10:44:35.573Z,6.90
2018-03-30T10:47:05.732Z,7.83
2018-03-30T10:49:40.243Z,8.03
2018-03-30T10:52:10.497Z,6.97
2018-03-30T10:54:40.492Z,4.70
2018-03-30T10:57:09.933Z,6.53
2018-03-30T10:59:41.358Z,5.63
2018-03-30T11:02:10.923Z,7.47
2018-03-30T11:04:52.696Z,7.93
2018-03-30T11:07:23.267Z,12.63
2018-03-30T11:09:53.861Z,5.87
2018-03-30T11:12:24.123Z,6.33
2018-03-30T11:14:53.580Z,7.07
2018-03-30T11:17:23.265Z,5.70
2018-03-30T11:19:54.371Z,4.17
2018-03-30T11:22:25.359Z,4.20
2018-03-30T11:24:56.695Z,6.60
2018-03-30T11:27:26.431Z,4.43
2018-03-30T11:29:58.796Z,5.57
2018-03-30T11:32:28.688Z,6.47
2018-03-30T11:35:10.918Z,5.83
2018-03-30T11:37:40.859Z,8.63
2018-03-30T11:40:10.534Z,5.43
2018-03-30T11:42:39.925Z,7.17
2018-03-30T11:45:09.432Z,7.63
2018-03-30T11:47:39.163Z,6.43
2018-03-30T11:50:20.968Z,5.77
2018-03-30T11:52:51.744Z,7.17
2018-03-30T12:08:34.154Z,7.10
2018-03-30T12:11:03.682Z,11.63
2018-03-30T12:13:34.397Z,8.70
2018-03-30T12:16:04.055Z,10.67
2018-03-30T12:18:33.828Z,12.80
2018-03-30T12:21:04.014Z,10.17
2018-03-30T12:23:33.399Z,10.90
2018-03-30T12:26:03.606Z,10.27
2018-03-30T12:28:34.440Z,9.97
2018-03-30T12:31:03.975Z,10.87
2018-03-30T12:33:33.688Z,10.30
2018-03-30T12:36:03.825Z,9.67
2018-03-30T12:38:34.237Z,10.43
2018-03-30T12:41:03.613Z,8.00
2018-03-30T12:43:45.810Z,7.60
2018-03-30T12:46:15.962Z,9.63
2018-03-30T12:48:45.746Z,7.37
2018-03-30T12:51:15.516Z,8.67
2018-03-30T13:06:58.702Z,9.30
2018-03-30T13:09:28.406Z,7.93
2018-03-30T13:11:58.829Z,8.57
2018-03-30T13:14:28.631Z,7.40
2018-03-30T13:16:58.422Z,9.53
2018-03-30T13:19:28.618Z,9.70
2018-03-30T13:22:01.584Z,7.67
2018-03-30T13:24:31.038Z,6.23
2018-03-30T13:27:04.235Z,10.43
2018-03-30T13:29:34.516Z,10.07
2018-03-30T13:32:07.600Z,6.80
2018-03-30T13:34:37.119Z,6.57
2018-03-30T13:37:10.020Z,7.40
2018-03-30T13:39:39.381Z,8.07
2018-03-30T13:42:13.114Z,5.77
2018-03-30T13:44:43.946Z,7.43
2018-03-30T13:47:17.192Z,7.13
2018-03-30T13:49:46.847Z,6.80
2018-03-30T13:52:18.884Z,8.83
2018-03-30T13:54:48.265Z,7.77
2018-03-30T13:57:20.551Z,6.03
2018-03-30T13:59:50.485Z,8.47
2018-03-30T14:02:25.323Z,5.93
2018-03-30T14:04:54.879Z,5.30
2018-03-30T14:07:26.806Z,6.27
2018-03-30T14:09:57.153Z,7.97
2018-03-30T14:12:28.219Z,8.63
2018-03-30T14:14:58.938Z,6.47
2018-03-30T14:17:31.363Z,5.27
2018-03-30T14:20:00.858Z,7.27
2018-03-30T14:22:33.024Z,5.90
2018-03-30T14:25:03.727Z,5.70
2018-03-30T14:27:37.261Z,5.20
2018-03-30T14:30:07.174Z,7.50
2018-03-30T14:32:38.455Z,3.80
2018-03-30T14:35:08.386Z,3.50
2018-03-30T14:37:40.757Z,4.53
2018-03-30T14:40:10.509Z,4.53
2018-03-30T14:42:44.354Z,6.80
2018-03-30T14:45:15.042Z,5.27
2018-03-30T14:47:47.803Z,7.10
2018-03-30T14:50:18.861Z,4.07
2018-03-30T14:52:49.035Z,5.90
2018-03-30T14:55:19.403Z,5.07
2018-03-30T14:57:52.125Z,7.27
2018-03-30T15:00:22.100Z,10.93
2018-03-30T15:02:55.507Z,6.97
2018-03-30T15:05:25.045Z,7.27
2018-03-30T15:07:56.912Z,6.87
2018-03-30T15:10:27.202Z,8.83
2018-03-30T15:12:59.899Z,7.73
2018-03-30T15:15:29.808Z,5.37
2018-03-30T15:18:03.528Z,4.87
2018-03-30T15:20:34.287Z,3.43
2018-03-30T15:23:09.228Z,4.20
2018-03-30T15:25:39.646Z,4.07
2018-03-30T15:28:09.390Z,5.20
2018-03-30T15:30:40.339Z,4.27
2018-03-30T15:33:22.067Z,3.83
2018-03-30T15:35:52.716Z,5.53
2018-03-30T15:38:23.830Z,3.93
2018-03-30T15:40:53.934Z,3.50
2018-03-30T15:43:24.212Z,6.63
2018-03-30T15:45:54.806Z,5.00
2018-03-30T15:48:25.577Z,3.97
2018-03-30T15:50:55.662Z,6.70
2018-03-30T15:53:23.433Z,6.37
2018-03-30T15:55:53.750Z,10.33
2018-03-30T15:58:25.175Z,9.33
2018-03-30T16:00:55.753Z,5.93
2018-03-30T16:03:28.302Z,5.43
2018-03-30T16:05:58.600Z,4.73
2018-03-30T16:08:29.156Z,5.27
2018-03-30T16:11:00.259Z,4.13
2018-03-30T16:13:31.032Z,6.30
2018-03-30T16:16:01.835Z,5.53
2018-03-30T16:18:43.333Z,4.13
2018-03-30T16:21:11.904Z,4.33
2018-03-30T16:23:39.934Z,5.80
2018-03-30T16:26:08.030Z,8.30
2018-03-30T16:28:37.189Z,7.97
2018-03-30T16:31:05.823Z,6.87
2018-03-30T16:36:08.815Z,8.40
2018-03-30T16:38:37.212Z,5.83
2018-03-30T16:41:05.319Z,4.07
2018-03-30T16:43:34.345Z,5.87
2018-03-30T16:46:02.171Z,6.13
2018-03-30T16:48:30.927Z,5.70
2018-03-30T16:50:58.745Z,4.27
2018-03-30T16:53:26.899Z,4.60
2018-03-30T16:55:56.626Z,4.13
2018-03-30T16:58:25.241Z,4.40
2018-03-30T17:00:56.993Z,6.20
2018-03-30T17:03:26.602Z,7.77
2018-03-30T17:05:59.692Z,4.97
2018-03-30T17:08:27.913Z,5.97
2018-03-30T17:11:02.200Z,4.47
2018-03-30T17:13:31.576Z,3.80
2018-03-30T17:15:59.381Z,3.20
2018-03-30T17:18:30.197Z,2.43
2018-03-30T17:20:58.031Z,3.47
2018-03-30T17:23:28.294Z,3.40
2018-03-30T17:25:57.710Z,4.57
2018-03-30T17:28:25.554Z,3.67
2018-03-30T17:30:53.388Z,6.00
2018-03-30T17:46:42.741Z,13.73
2018-03-30T17:49:12.055Z,11.57
2018-03-30T17:51:40.670Z,18.60
2018-03-30T17:54:08.665Z,9.43
2018-03-30T17:56:37.368Z,26.80
2018-03-30T17:59:06.206Z,36.33
2018-03-30T18:01:34.498Z,29.53
2018-03-30T18:04:02.290Z,14.30
2018-03-30T18:06:32.283Z,8.60
2018-03-30T18:09:00.116Z,5.97
2018-03-30T18:11:27.800Z,14.23
2018-03-30T18:13:55.806Z,7.33
2018-03-30T18:16:25.309Z,10.43
2018-03-30T18:18:53.822Z,9.27
2018-03-30T18:21:23.357Z,23.73
2018-03-30T18:23:51.874Z,3.47
2018-03-30T18:26:20.473Z,5.17
2018-03-30T18:28:48.529Z,3.20
2018-03-30T18:31:17.077Z,5.03
2018-03-30T18:33:48.607Z,12.60
2018-03-30T18:36:17.392Z,5.50
2018-03-30T18:38:45.639Z,23.93
2018-03-30T18:41:14.153Z,2.00
2018-03-30T18:43:42.264Z,2.73
2018-03-30T18:46:10.033Z,5.40
2018-03-30T18:48:38.624Z,3.27
2018-03-30T18:51:07.935Z,5.63
2018-03-30T18:53:37.276Z,3.77
2018-03-30T18:56:05.842Z,3.30
2018-03-30T18:58:33.997Z,2.83
2018-03-30T19:01:04.565Z,3.07
2018-03-30T19:03:32.333Z,2.67
2018-03-30T19:06:00.444Z,3.33
2018-03-30T19:08:28.224Z,4.03
2018-03-30T19:10:57.274Z,2.53
2018-03-30T19:13:25.614Z,3.10
2018-03-30T19:15:53.402Z,2.60
2018-03-30T19:18:22.056Z,2.90
2018-03-30T19:20:49.935Z,2.53
2018-03-30T19:23:17.785Z,2.20
2018-03-30T19:25:45.576Z,2.73
2018-03-30T19:28:17.824Z,2.40
2018-03-30T19:30:45.671Z,2.93
2018-03-30T19:33:13.943Z,17.20
2018-03-30T19:35:42.451Z,1.60
2018-03-30T19:38:10.274Z,1.60
2018-03-30T19:40:38.110Z,1.67
2018-03-30T19:43:07.742Z,1.60
2018-03-30T19:45:38.287Z,2.10
2018-03-30T19:48:07.318Z,1.63
2018-03-30T19:50:36.288Z,3.83
2018-03-30T19:53:06.043Z,1.70
2018-03-30T19:55:33.892Z,2.37
2018-03-30T19:58:02.496Z,1.77
2018-03-30T20:00:35.345Z,2.93
2018-03-30T20:03:03.391Z,2.33
2018-03-30T20:08:19.609Z,1.90
2018-03-30T20:10:49.722Z,1.50
2018-03-30T20:13:18.520Z,1.50
2018-03-30T20:15:47.161Z,1.50
2018-03-30T20:18:35.059Z,1.33
2018-03-30T20:21:02.976Z,1.40
2018-03-30T20:23:31.269Z,2.13
2018-03-30T20:25:59.268Z,1.40
2018-03-30T20:28:28.703Z,2.00
2018-03-30T20:30:57.716Z,2.43
2018-03-30T20:33:25.745Z,2.23
2018-03-30T20:36:07.799Z,2.30
2018-03-30T20:38:36.648Z,2.50
2018-03-30T20:41:04.588Z,1.83
2018-03-30T20:43:33.149Z,1.97
2018-03-30T20:46:03.172Z,2.80
2018-03-30T20:48:32.170Z,2.27
2018-03-30T20:51:14.193Z,1.73
2018-03-30T20:53:42.262Z,9.47
2018-03-30T20:56:10.125Z,8.67
2018-03-30T20:58:37.952Z,6.43
2018-03-30T21:01:11.034Z,6.57
2018-03-30T21:03:39.190Z,9.67
2018-03-30T21:06:07.108Z,7.63
2018-03-30T21:08:35.257Z,8.43
2018-03-30T21:11:04.260Z,5.03
2018-03-30T21:13:32.119Z,5.07
2018-03-30T21:16:00.769Z,3.53
2018-03-30T21:18:29.741Z,3.33
2018-03-30T21:20:57.573Z,6.80
2018-03-30T21:23:26.994Z,5.43
2018-03-30T21:25:55.126Z,6.27
2018-03-30T21:28:23.441Z,5.40
2018-03-30T21:30:52.379Z,6.50
2018-03-30T21:33:24.558Z,7.70
2018-03-30T21:35:52.327Z,7.70
2018-03-30T21:38:20.152Z,6.40
2018-03-30T21:40:48.454Z,4.87
2018-03-30T21:43:17.795Z,8.57
2018-03-30T21:45:48.724Z,11.60
2018-03-30T21:48:17.334Z,11.83
2018-03-30T21:50:45.280Z,11.60
2018-03-30T21:53:13.842Z,12.60
2018-03-30T22:08:55.075Z,12.57
2018-03-30T22:11:23.372Z,8.13
2018-03-30T22:13:52.909Z,21.83
2018-03-30T22:16:22.658Z,10.93
2018-03-30T22:18:50.638Z,14.83
2018-03-30T22:21:20.913Z,20.13
2018-03-30T22:23:52.796Z,18.40
2018-03-30T22:26:21.190Z,20.27
2018-03-30T22:28:49.068Z,22.60
2018-03-30T22:31:17.342Z,23.80
2018-03-30T22:33:45.616Z,18.97
2018-03-30T22:36:13.864Z,19.47
2018-03-30T22:38:42.137Z,17.43
2018-03-30T22:41:10.362Z,24.67
2018-03-30T22:43:38.287Z,10.60
2018-03-30T22:46:06.869Z,9.33
2018-03-30T22:48:35.299Z,10.17
2018-03-30T22:51:03.311Z,14.10
2018-03-30T22:53:31.128Z,7.93
2018-03-30T22:55:59.445Z,8.23
2018-03-30T22:58:27.354Z,7.47
2018-03-30T23:00:55.249Z,6.57
2018-03-30T23:03:23.468Z,9.53
2018-03-30T23:05:52.744Z,6.67
2018-03-30T23:08:22.234Z,11.70
2018-03-30T23:10:51.166Z,6.80
2018-03-30T23:13:21.990Z,7.33
2018-03-30T23:15:49.872Z,7.43
2018-03-30T23:18:18.237Z,7.33
2018-03-30T23:20:47.267Z,16.80
2018-03-30T23:23:15.161Z,18.97
2018-03-30T23:25:43.483Z,15.83
2018-03-30T23:28:12.081Z,9.83
2018-03-30T23:30:41.168Z,8.73
2018-03-30T23:33:09.377Z,11.87
2018-03-30T23:35:38.369Z,11.33
2018-03-30T23:38:07.422Z,13.43
2018-03-30T23:40:37.649Z,16.07
2018-03-30T23:43:05.520Z,15.77
2018-03-30T23:45:34.185Z,7.63
2018-03-30T23:48:07.250Z,10.47
2018-03-30T23:50:35.993Z,6.90
2018-03-30T23:53:03.943Z,8.53
2018-03-30T23:55:32.653Z,7.17
2018-03-30T23:58:00.576Z,7.13
